Caputa, SD (57725)

3:48 AM MDT on September 17, 2014 (GMT -0600)
Rapid City | Change Station
CLOSE
Current Station
Airport
Location: Rapid City,
Elevation: 3166 ft
Nearby Weather Stations

Elev 3166 ft 44.05 °N, 103.06 °W | Updated 56 minutes ago

Clear
Clear
55 °F
Feels Like 55 °F
N
8
Wind Variable Wind from NW

Today
High -- | Low -- °F
--% Chance of Precip.
Yesterday
High -- | Low -- °F
Precip. -- in
6:33 AM 6:58 PM
Last Quarter, 37% visible
Pressure 29.87 in
Visibility 10.0 miles
Clouds Clear
Dew Point 43 °F
Humidity 64%
Rainfall 0.00 in
Snow Depth Not available.
UV 0 out of 12
Pollen 5.80 out of 12
Air Quality Not available.
Flu Activity Not available.
METAR KRAP 170852Z 31007KT 10SM CLR 13/06 A2993 RMK AO2 SLP115 T01280061 58008

More Conditions Fewer Conditions

Pressure 29.87 in
Visibility 10.0 miles
Clouds Clear
Dew Point 43 °F
Humidity 64%
Rainfall 0.00 in
Snow Depth Not available.
UV 0 out of 12
Pollen 5.80 out of 12
Air Quality Not available.
Flu Activity Not available.
METAR KRAP 170852Z 31007KT 10SM CLR 13/06 A2993 RMK AO2 SLP115 T01280061 58008

More Conditions Fewer Conditions

10-Day Weather Forecast

Almanac

Astronomy

Sep. 17, 2014 Rise Set
Actual Time 6:33 AM MDT 6:58 PM MDT
Civil Twilight 6:04 AM MDT 7:27 PM MDT
Nautical Twilight 5:30 AM MDT 8:01 PM MDT
Astronomical Twilight 4:55 AM MDT 8:36 PM MDT
Moon 12:26 AM MDT 3:18 PM MDT
Length of Visible Light 13h 22m
Length of Day
12h 25m
Tomorrow will be 3m 0s shorter.
Last Quarter, 37% of the Moon is Illuminated
Today
Last Quarter
Sep 24
New
Oct 1
First Quarter
Oct 8
Full
Oct 15
Last Quarter

Today's Extremes

State Highs State Lows

Community

WunderPhotos

Upload Photos

1,753,991 photos uploaded!

Nearby

Snow Depth

Station Depth Elevation
Blind Park 0 in 6890 ft

Earthquake Activity

City Distance Mag. Time & Date
No recent earthquake activity has been reported nearby.
Minimum magnitude displayed is 2.5.

Coastal Water Temperatures

Place Temperature
No Stations Reporting

Nearby Weather Stations